M I D A S
Marine Information and Data Acquisition System
Tripno 1420 of the Zeeleeuw from 2008-01-30 07:56:28 to 2008-01-30 14:14:02
Back to CruiseResearch ActivitiesStationsMapUnderway DataData graphs

EquipmentUnitsComment
TimeDGPSUTC
LatitudeDGPSDM.mWGS84
LongitudeDGPSDM.mWGS84
HeadingGyrodeg 
SOGDGPSknotsSpeed over ground
COGDGPSdegCourse over ground
DepthEcho soundermeters200 kHz
Missing or incorrect values are displayed as -999
Navigation data collected by the RV Zeeleeuw from 2008-01-30 07:56:29 to 2008-01-30 14:25:45
Time Latitude Longitude Heading SOG COG Depth
2008-01-30 07:57:34 51°13.662 2°55.953 105.7 0.3 259 8.1
2008-01-30 07:58:34 51°13.665 2°55.916 110 2.8 285 -999
2008-01-30 07:59:34 51°13.687 2°55.813 112.7 4.7 289 -999
2008-01-30 08:00:34 51°13.704 2°55.729 111.9 0.6 124 14.8
2008-01-30 08:01:34 51°13.695 2°55.728 77.2 1 236 13.9
2008-01-30 08:02:34 51°13.701 2°55.755 32.7 1.2 185 14.9
2008-01-30 08:03:34 51°13.704 2°55.757 2.2 3.5 357 -999
2008-01-30 08:04:34 51°13.774 2°55.686 329.1 5.1 327 10.8
2008-01-30 08:05:34 51°13.861 2°55.613 337.7 7 334 11.4
2008-01-30 08:06:34 51°13.978 2°55.527 338.1 8.2 334 11.3
2008-01-30 08:07:34 51°14.102 2°55.434 338 8.2 335 11.4
2008-01-30 08:08:34 51°14.22 2°55.316 322.9 9.3 316 11.7
2008-01-30 08:09:34 51°14.33 2°55.104 310.8 10.8 304 11.2
2008-01-30 08:10:34 51°14.418 2°54.847 301.6 11.1 294 11.4
2008-01-30 08:11:34 51°14.523 2°54.596 321.6 11.5 321 11.7
2008-01-30 08:12:34 51°14.691 2°54.457 337 11.3 333 11.2
2008-01-30 08:13:34 51°14.859 2°54.32 336.7 11.3 333 10.5
2008-01-30 08:14:34 51°15.026 2°54.185 337.2 11.5 333 9.8
2008-01-30 08:15:34 51°15.196 2°54.044 337.8 11.2 333 10.4
2008-01-30 08:16:34 51°15.359 2°53.904 338.4 10.9 332 10.7
2008-01-30 08:17:34 51°15.525 2°53.762 338.1 11.8 332 11.4
2008-01-30 08:18:34 51°15.694 2°53.619 337.9 11.6 332 11.4
2008-01-30 08:19:34 51°15.86 2°53.483 338.2 10.9 335 12.4
2008-01-30 08:20:34 51°16.024 2°53.349 338.3 11.3 334 12
2008-01-30 08:21:34 51°16.195 2°53.21 338.1 11.6 334 12.4
2008-01-30 08:22:34 51°16.364 2°53.075 339 11.2 333 12.4
2008-01-30 08:23:34 51°16.533 2°52.939 337.5 11.2 333 12.1
2008-01-30 08:24:34 51°16.707 2°52.819 343.9 11.3 339 11.9
2008-01-30 08:25:34 51°16.885 2°52.71 345.7 11.7 342 10.4
2008-01-30 08:26:34 51°17.071 2°52.624 351.6 11.6 345 10.3
2008-01-30 08:27:34 51°17.259 2°52.559 354.3 11.4 350 10.5
2008-01-30 08:28:34 51°17.445 2°52.524 1.5 11.2 357 11.2
2008-01-30 08:29:34 51°17.636 2°52.507 2.3 11.5 359 10.7
2008-01-30 08:30:34 51°17.816 2°52.534 13.8 11.2 13 11.2
2008-01-30 08:31:34 51°17.997 2°52.593 16.5 11.5 13 11.5
2008-01-30 08:32:34 51°18.154 2°52.76 49.1 11.7 50 11.4
2008-01-30 08:33:34 51°18.269 2°53.013 60.2 11.8 55 11.8
2008-01-30 08:34:34 51°18.378 2°53.275 63.4 11.6 55 11.8
2008-01-30 08:35:34 51°18.478 2°53.545 65.5 12 62 11.5
2008-01-30 08:36:34 51°18.569 2°53.823 65.4 12 66 11.4
2008-01-30 08:37:34 51°18.66 2°54.098 69.4 11.7 66 11.8
2008-01-30 08:38:34 51°18.748 2°54.378 68.3 11.8 61 11.7
2008-01-30 08:39:34 51°18.836 2°54.654 67.5 11.5 64 11.4
2008-01-30 08:40:34 51°18.928 2°54.929 66.1 11.6 62 11.6
2008-01-30 08:41:34 51°19.019 2°55.204 66.3 11.7 64 11.9
2008-01-30 08:42:34 51°19.102 2°55.484 72.5 11.9 61 11.6
2008-01-30 08:43:34 51°19.175 2°55.769 70.8 11.7 72 11.6
2008-01-30 08:44:34 51°19.241 2°56.061 75.9 11.8 71 11.2
2008-01-30 08:45:34 51°19.305 2°56.352 74.8 11.5 74 11.4
2008-01-30 08:46:34 51°19.368 2°56.645 77 11.6 67 11.1
2008-01-30 08:47:34 51°19.433 2°56.934 74 11.6 75 11.1
2008-01-30 08:48:34 51°19.497 2°57.225 73.8 11.4 71 10.7
2008-01-30 08:49:34 51°19.563 2°57.512 74.5 11.5 67 11.1
2008-01-30 08:50:34 51°19.627 2°57.801 74.7 11.6 70 10.6
2008-01-30 08:51:34 51°19.693 2°58.09 76.2 11.4 67 10.7
2008-01-30 08:52:34 51°19.756 2°58.377 75.5 11.7 67 10.5
2008-01-30 08:53:34 51°19.817 2°58.664 74.9 11.2 70 10.4
2008-01-30 08:54:34 51°19.873 2°58.95 75.6 11.3 78 10.1
2008-01-30 08:55:34 51°19.932 2°59.234 75 11.2 73 10
2008-01-30 08:56:34 51°19.986 2°59.52 76.6 11.2 74 10.1
2008-01-30 08:57:34 51°20.035 2°59.808 77.7 11.3 66 9.9
2008-01-30 08:58:34 51°20.085 3°0.092 76 11.2 79 10.1
2008-01-30 08:59:34 51°20.13 3°0.38 80 11.2 72 9.7
2008-01-30 09:00:34 51°20.175 3°0.665 78.8 10.9 69 9.8
2008-01-30 09:01:34 51°20.231 3°0.946 74.7 11 75 9.3
2008-01-30 09:02:34 51°20.286 3°1.227 74.8 11.3 78 9.5
2008-01-30 09:03:34 51°20.34 3°1.506 76.9 11.1 74 9.4
2008-01-30 09:04:34 51°20.395 3°1.784 74.1 10.9 77 9.7
2008-01-30 09:05:34 51°20.449 3°2.066 73.2 11 81 9.3
2008-01-30 09:06:34 51°20.503 3°2.347 74.6 11.1 74 9.5
2008-01-30 09:07:34 51°20.554 3°2.629 75.4 11.1 79 9.2
2008-01-30 09:08:34 51°20.599 3°2.912 76.9 11 79 9.3
2008-01-30 09:09:34 51°20.642 3°3.197 79.8 11.1 82 9.2
2008-01-30 09:10:34 51°20.677 3°3.486 82 11 72 9.3
2008-01-30 09:11:34 51°20.722 3°3.776 78.8 11.5 68 9.2
2008-01-30 09:12:34 51°20.755 3°4.078 84.9 11.9 81 9
2008-01-30 09:13:34 51°20.787 3°4.38 82 11.5 77 8.9
2008-01-30 09:14:34 51°20.821 3°4.681 78.8 11.6 76 8.9
2008-01-30 09:15:34 51°20.865 3°4.978 77.6 11.6 75 8.7
2008-01-30 09:16:34 51°20.904 3°5.276 80.2 11.6 80 8.8
2008-01-30 09:17:34 51°20.941 3°5.575 79 11.6 79 8.8
2008-01-30 09:18:34 51°20.987 3°5.872 79.8 11.9 71 8.6
2008-01-30 09:19:34 51°21.036 3°6.164 74.7 11.3 78 8.9
2008-01-30 09:20:34 51°21.093 3°6.45 70.5 11.4 66 8.8
2008-01-30 09:21:34 51°21.152 3°6.735 72.9 11.4 68 9
2008-01-30 09:22:34 51°21.212 3°7.019 72.6 11.4 73 8.9
2008-01-30 09:23:34 51°21.269 3°7.301 71.8 11 71 9.2
2008-01-30 09:24:34 51°21.325 3°7.585 71.6 11.3 75 9.3
2008-01-30 09:25:34 51°21.381 3°7.869 71.8 11.2 69 9.3
2008-01-30 09:26:34 51°21.44 3°8.152 71.1 11.5 72 9.6
2008-01-30 09:27:34 51°21.498 3°8.434 71.6 11.1 68 9.6
2008-01-30 09:28:34 51°21.552 3°8.716 73.3 11.3 74 9.8
2008-01-30 09:29:34 51°21.605 3°8.941 64.3 5.9 60 10.6
2008-01-30 09:30:34 51°21.644 3°9.028 36 4.4 11 10.8
2008-01-30 09:31:34 51°21.697 3°8.939 293.4 5.9 276 10.8
2008-01-30 09:32:34 51°21.664 3°8.834 224.3 3.6 230 10.7
2008-01-30 09:33:34 51°21.63 3°8.775 223.2 2.7 232 10.2
2008-01-30 09:34:34 51°21.598 3°8.721 225.7 3.2 234 10.6
2008-01-30 09:35:34 51°21.563 3°8.648 232.5 3.6 234 10.2
2008-01-30 09:36:34 51°21.529 3°8.561 243.3 4.2 241 10
2008-01-30 09:37:34 51°21.5 3°8.455 256.9 3.9 249 9.7
2008-01-30 09:38:34 51°21.478 3°8.365 257.6 3.6 246 9.7
2008-01-30 09:39:34 51°21.456 3°8.277 257.6 3.6 248 9.7
2008-01-30 09:40:34 51°21.433 3°8.192 255.6 3.5 248 9.6
2008-01-30 09:41:34 51°21.408 3°8.108 252.1 3.5 242 9.7
2008-01-30 09:42:34 51°21.382 3°8.024 254.3 3.4 242 9.8
2008-01-30 09:43:34 51°21.357 3°7.942 254.7 3.2 245 9.9
2008-01-30 09:44:34 51°21.334 3°7.859 257.1 3.6 248 9
2008-01-30 09:45:34 51°21.311 3°7.77 257.8 3.5 248 8.8
2008-01-30 09:46:34 51°21.287 3°7.684 258.5 3.4 243 8.5
2008-01-30 09:47:34 51°21.263 3°7.6 256.2 3.4 249 8.4
2008-01-30 09:48:34 51°21.237 3°7.517 255.4 3.4 242 8.7
2008-01-30 09:49:34 51°21.21 3°7.436 254.9 3.5 241 8.1
2008-01-30 09:50:34 51°21.185 3°7.354 255.4 3.2 239 8.8
2008-01-30 09:51:34 51°21.16 3°7.274 255.4 3.4 245 8.5
2008-01-30 09:52:34 51°21.138 3°7.19 258.4 3.5 249 8.3
2008-01-30 09:53:34 51°21.117 3°7.104 260.5 3.4 249 8.4
2008-01-30 09:54:34 51°21.096 3°7.018 260.5 3.4 250 8.3
2008-01-30 09:55:34 51°21.075 3°6.933 260.8 3.3 251 8.3
2008-01-30 09:56:34 51°21.056 3°6.846 263.6 3.5 255 8.1
2008-01-30 09:57:34 51°21.04 3°6.756 267.7 3.6 256 8.1
2008-01-30 09:58:34 51°21.025 3°6.669 267.9 3.4 255 8.2
2008-01-30 09:59:34 51°21.012 3°6.577 273.3 3.7 257 8.1
2008-01-30 10:00:34 51°21.001 3°6.487 270.2 3.3 256 8.1
2008-01-30 10:01:34 51°20.986 3°6.4 271.4 3.3 257 8.3
2008-01-30 10:02:34 51°20.974 3°6.313 271.8 3.3 259 8.2
2008-01-30 10:03:34 51°20.96 3°6.227 270.8 3.4 257 8.2
2008-01-30 10:04:34 51°20.949 3°6.135 273.7 3.4 260 8.2
2008-01-30 10:05:34 51°20.938 3°6.046 273.3 3.4 258 8.3
2008-01-30 10:06:34 51°20.925 3°5.959 271.2 3.3 258 8.3
2008-01-30 10:07:34 51°20.911 3°5.871 271.1 3.5 256 8.2
2008-01-30 10:08:34 51°20.895 3°5.786 267.9 3.3 246 7.5
2008-01-30 10:09:34 51°20.878 3°5.706 269.5 3.3 254 7.9
2008-01-30 10:10:34 51°20.863 3°5.625 269.1 3.3 255 8.1
2008-01-30 10:11:34 51°20.854 3°5.542 289.9 2.9 268 8.5
2008-01-30 10:12:34 51°20.863 3°5.478 327.5 2.3 294 8.5
2008-01-30 10:13:34 51°20.875 3°5.436 350.4 1.2 287 8.4
2008-01-30 10:14:34 51°20.877 3°5.409 359.8 1.1 251 8.3
2008-01-30 10:15:34 51°20.87 3°5.388 10.6 1 238 8.5
2008-01-30 10:16:34 51°20.857 3°5.364 17.9 1.3 226 8.4
2008-01-30 10:17:34 51°20.841 3°5.339 29.5 1.4 228 8
2008-01-30 10:18:34 51°20.836 3°5.321 24.5 0.9 316 7.9
2008-01-30 10:19:34 51°20.863 3°5.268 323 4.2 292 8.6
2008-01-30 10:20:34 51°20.857 3°5.105 270.7 9.1 266 8.1
2008-01-30 10:21:34 51°20.849 3°4.786 274.3 13.3 266 8.5
2008-01-30 10:22:34 51°20.825 3°4.427 268.3 13.5 264 8.4
2008-01-30 10:23:34 51°20.793 3°4.069 266.7 13.7 262 8.7
2008-01-30 10:24:34 51°20.756 3°3.71 264.3 13.6 259 8.4
2008-01-30 10:25:34 51°20.713 3°3.352 264.3 13.5 260 8.3
2008-01-30 10:26:34 51°20.667 3°2.995 259.9 13.7 254 8.8
2008-01-30 10:27:34 51°20.614 3°2.637 261.4 13.9 257 8.7
2008-01-30 10:28:33 51°20.566 3°2.283 260.7 13.8 258 8.7
2008-01-30 10:29:32 51°20.515 3°1.932 261.2 13.7 258 8.6
2008-01-30 10:30:31 51°20.454 3°1.586 253.3 13.9 247 9
2008-01-30 10:31:30 51°20.374 3°1.248 254.2 14 251 8.8
2008-01-30 10:32:30 51°20.299 3°0.902 253.2 13.7 252 8.7
2008-01-30 10:33:30 51°20.227 3°0.552 255.4 13.7 249 8.7
2008-01-30 10:34:30 51°20.152 3°0.204 253.5 13.9 251 9
2008-01-30 10:35:30 51°20.077 2°59.855 254.7 14 251 9.1
2008-01-30 10:36:30 51°20.002 2°59.505 254.1 13.9 252 9.1
2008-01-30 10:37:30 51°19.923 2°59.156 251.2 14 248 9.1
2008-01-30 10:38:30 51°19.838 2°58.81 251.5 14.2 249 9.3
2008-01-30 10:39:30 51°19.751 2°58.463 252 14 249 9.1
2008-01-30 10:40:31 51°19.664 2°58.111 251 14.1 250 9.5
2008-01-30 10:41:31 51°19.578 2°57.765 251.5 14.1 248 9.6
2008-01-30 10:42:30 51°19.493 2°57.426 251.6 14.1 249 10
2008-01-30 10:43:30 51°19.406 2°57.08 250.9 14.2 247 10
2008-01-30 10:44:30 51°19.318 2°56.734 250.7 14.2 246 9.9
2008-01-30 10:45:30 51°19.232 2°56.386 251.3 14.1 246 10.1
2008-01-30 10:46:31 51°19.146 2°56.034 250.4 14.1 251 9.8
2008-01-30 10:47:30 51°19.064 2°55.694 250.9 14 247 10.1
2008-01-30 10:48:31 51°18.978 2°55.349 250.1 13.7 249 10
2008-01-30 10:49:30 51°18.897 2°55.017 252.2 13.7 249 10.6
2008-01-30 10:50:31 51°18.813 2°54.673 252 13.7 249 10.3
2008-01-30 10:51:31 51°18.73 2°54.336 251.7 13.7 247 10.5
2008-01-30 10:52:31 51°18.649 2°54.003 250.3 13.6 248 10.4
2008-01-30 10:53:30 51°18.567 2°53.673 251.5 13.7 248 10.6
2008-01-30 10:54:30 51°18.473 2°53.343 246 13.7 244 10.7
2008-01-30 10:55:30 51°18.386 2°53.057 249 8.8 247 10.9
2008-01-30 10:56:30 51°18.336 2°52.896 249.8 6.2 243 11
2008-01-30 10:57:30 51°18.267 2°52.697 244 10.9 241 10.4
2008-01-30 10:58:30 51°18.17 2°52.403 244.3 13.2 245 10.2
2008-01-30 10:59:30 51°18.073 2°52.086 245.8 13.3 243 10.1
2008-01-30 11:00:30 51°17.974 2°51.771 244.5 13.3 246 9.9
2008-01-30 11:01:30 51°17.867 2°51.464 243.3 13.3 240 9.9
2008-01-30 11:02:31 51°17.759 2°51.151 244.2 13.2 241 9.6
2008-01-30 11:03:30 51°17.654 2°50.85 241.2 13.3 241 9.7
2008-01-30 11:04:30 51°17.549 2°50.541 242.8 13.3 240 10
2008-01-30 11:05:30 51°17.44 2°50.238 242 13.2 240 10.6
2008-01-30 11:06:31 51°17.322 2°49.938 231.3 12.6 223 10.9
2008-01-30 11:07:30 51°17.122 2°49.846 192.9 12.9 189 9.3
2008-01-30 11:08:30 51°16.908 2°49.796 185.6 12.9 191 9.9
2008-01-30 11:09:30 51°16.721 2°49.616 225.8 13.4 226 11.9
2008-01-30 11:10:31 51°16.551 2°49.38 219.6 13.6 220 14.7
2008-01-30 11:11:30 51°16.384 2°49.151 218.2 13.6 222 14.5
2008-01-30 11:12:30 51°16.215 2°48.916 220 13.5 224 13.9
2008-01-30 11:13:31 51°16.042 2°48.684 219.3 13.3 217 13.3
2008-01-30 11:14:30 51°15.87 2°48.467 217.5 13 219 12.3
2008-01-30 11:15:30 51°15.696 2°48.246 216.7 13.4 224 11
2008-01-30 11:16:30 51°15.524 2°48.028 217.5 13.1 221 10.3
2008-01-30 11:17:31 51°15.349 2°47.805 217 13.3 221 9.4
2008-01-30 11:18:30 51°15.182 2°47.592 218.7 13.1 218 8.9
2008-01-30 11:19:30 51°15.013 2°47.367 222 13.3 220 9.7
2008-01-30 11:20:31 51°14.849 2°47.119 221.3 13.3 223 11.2
2008-01-30 11:21:31 51°14.684 2°46.881 219.9 13.3 224 12.5
2008-01-30 11:22:30 51°14.515 2°46.654 217.8 13.4 218 12.1
2008-01-30 11:23:30 51°14.34 2°46.432 218.2 13.2 218 11.4
2008-01-30 11:24:31 51°14.164 2°46.211 216.1 13.1 219 10.4
2008-01-30 11:25:30 51°13.989 2°46.008 213.8 13.2 215 9.1
2008-01-30 11:26:30 51°13.808 2°45.816 210.2 13.5 215 8.2
2008-01-30 11:27:30 51°13.628 2°45.622 212.7 12.8 212 8.4
2008-01-30 11:28:30 51°13.445 2°45.421 210.5 13.6 217 10.2
2008-01-30 11:29:31 51°13.263 2°45.212 217.6 13.2 224 11.3
2008-01-30 11:30:30 51°13.098 2°44.981 219.3 13.6 223 11.2
2008-01-30 11:31:30 51°12.942 2°44.73 228.4 13.5 235 11.4
2008-01-30 11:32:30 51°12.805 2°44.462 231.5 12.8 230 11.5
2008-01-30 11:33:30 51°12.671 2°44.199 229.4 12.7 233 11.4
2008-01-30 11:34:30 51°12.536 2°43.941 229.6 12.9 228 11.4
2008-01-30 11:35:30 51°12.406 2°43.676 236 12.8 234 11.3
2008-01-30 11:36:31 51°12.285 2°43.391 236.4 12.7 234 10.4
2008-01-30 11:37:30 51°12.171 2°43.116 237.9 12.6 235 10.3
2008-01-30 11:38:30 51°12.048 2°42.845 235.5 12.7 235 11
2008-01-30 11:39:30 51°11.928 2°42.569 236.9 12.7 236 10.6
2008-01-30 11:40:31 51°11.805 2°42.29 236.6 12.5 235 10.5
2008-01-30 11:41:30 51°11.685 2°42.021 235.5 12.7 232 10.9
2008-01-30 11:42:30 51°11.565 2°41.746 236.6 12.7 236 10.5
2008-01-30 11:43:31 51°11.442 2°41.467 236.5 12.6 235 10.7
2008-01-30 11:44:30 51°11.32 2°41.198 236.6 12.7 234 12
2008-01-30 11:45:31 51°11.194 2°40.922 232.8 12.8 232 12.2
2008-01-30 11:46:30 51°11.055 2°40.678 227.5 12.7 224 12.4
2008-01-30 11:47:31 51°10.909 2°40.427 228.3 12.7 229 12.6
2008-01-30 11:48:30 51°10.767 2°40.182 228.2 12.9 228 13.2
2008-01-30 11:49:31 51°10.619 2°39.927 229.3 12.8 226 13.4
2008-01-30 11:50:30 51°10.48 2°39.677 230.7 12.9 230 13.6
2008-01-30 11:51:31 51°10.343 2°39.406 233 12.9 230 13.8
2008-01-30 11:52:31 51°10.209 2°39.141 232 12.6 230 14.4
2008-01-30 11:53:30 51°10.11 2°38.969 240.9 6.8 243 14.1
2008-01-30 11:54:31 51°10.121 2°38.825 311.6 5.6 295 14.6
2008-01-30 11:55:31 51°10.153 2°38.733 323.1 2.8 300 15
2008-01-30 11:56:31 51°10.177 2°38.669 336 1.8 312 14.6
2008-01-30 11:57:31 51°10.206 2°38.651 10.9 2.3 2 14.8
2008-01-30 11:58:31 51°10.253 2°38.677 45 3 51 15.4
2008-01-30 11:59:31 51°10.232 2°38.761 130.9 4.6 144 15.1
2008-01-30 12:00:31 51°10.151 2°38.766 195.8 4.9 203 14.7
2008-01-30 12:01:31 51°10.086 2°38.704 215.7 4.3 214 14.6
2008-01-30 12:02:31 51°10.032 2°38.637 223.9 4 217 14.3
2008-01-30 12:03:31 51°9.985 2°38.568 236.2 3.7 227 14.4
2008-01-30 12:04:31 51°9.949 2°38.48 255.3 3.7 238 14
2008-01-30 12:05:31 51°9.92 2°38.393 260.5 3.6 244 14.5
2008-01-30 12:06:31 51°9.895 2°38.305 267.7 3.7 249 14.5
2008-01-30 12:07:31 51°9.873 2°38.216 267 3.5 246 14.3
2008-01-30 12:08:31 51°9.85 2°38.129 267.1 3.6 247 14.7
2008-01-30 12:09:31 51°9.829 2°38.041 268.3 3.6 249 14.6
2008-01-30 12:10:31 51°9.807 2°37.953 269.7 3.6 248 14.9
2008-01-30 12:11:31 51°9.789 2°37.867 273.4 3.4 251 14.9
2008-01-30 12:12:31 51°9.77 2°37.784 273.9 3.3 250 15.3
2008-01-30 12:13:31 51°9.753 2°37.699 274.6 3.3 250 15
2008-01-30 12:14:31 51°9.734 2°37.619 271.2 3.4 248 15.3
2008-01-30 12:15:31 51°9.714 2°37.535 271.4 3.4 249 15.8
2008-01-30 12:16:31 51°9.695 2°37.451 273.5 3.4 251 15.5
2008-01-30 12:17:31 51°9.678 2°37.367 275.1 3.4 253 15.7
2008-01-30 12:18:31 51°9.66 2°37.281 274.3 3.4 250 15.6
2008-01-30 12:19:31 51°9.642 2°37.194 273 3.5 253 15.6
2008-01-30 12:20:31 51°9.624 2°37.106 272.8 3.5 251 15.6
2008-01-30 12:21:31 51°9.604 2°37.022 273.4 3.3 247 15.2
2008-01-30 12:22:31 51°9.586 2°36.937 272.8 3.5 254 15.5
2008-01-30 12:23:31 51°9.566 2°36.852 267.8 3.3 250 15.5
2008-01-30 12:24:31 51°9.546 2°36.768 271.5 3.5 252 15.4
2008-01-30 12:25:31 51°9.53 2°36.679 274.6 3.4 252 15
2008-01-30 12:26:31 51°9.513 2°36.597 275.9 3 252 15.5
2008-01-30 12:27:31 51°9.497 2°36.517 275.5 3.2 250 15.3
2008-01-30 12:28:31 51°9.477 2°36.44 269.5 3 243 15
2008-01-30 12:29:31 51°9.457 2°36.363 273.1 3.1 252 16
2008-01-30 12:30:31 51°9.44 2°36.28 274.5 3.2 250 16
2008-01-30 12:31:31 51°9.421 2°36.203 270.6 3.2 249 16.2
2008-01-30 12:32:31 51°9.4 2°36.122 271.4 3.3 249 16.1
2008-01-30 12:33:31 51°9.383 2°36.039 276.5 3.4 256 16.3
2008-01-30 12:34:31 51°9.367 2°35.955 277.6 3 252 15.7
2008-01-30 12:35:31 51°9.356 2°35.885 298.8 2.5 265 16.6
2008-01-30 12:36:30 51°9.355 2°35.834 320 1.5 257 16.3
2008-01-30 12:37:31 51°9.341 2°35.806 307.8 1.4 210 16.3
2008-01-30 12:38:31 51°9.318 2°35.794 283.6 1.3 184 15.6
2008-01-30 12:39:31 51°9.297 2°35.789 259.2 1.2 189 16.1
2008-01-30 12:40:31 51°9.277 2°35.782 239.7 1.6 208 15.2
2008-01-30 12:41:31 51°9.252 2°35.706 276.3 4 263 16.4
2008-01-30 12:42:31 51°9.279 2°35.633 358.5 3.2 352 16.2
2008-01-30 12:43:31 51°9.3 2°35.698 86.5 2.6 99 16.1
2008-01-30 12:44:31 51°9.287 2°35.744 84.4 1.4 117 16.4
2008-01-30 12:45:31 51°9.276 2°35.766 70.9 0.9 130 16.1
2008-01-30 12:46:30 51°9.275 2°35.81 59.9 3.5 67 16.4
2008-01-30 12:47:30 51°9.333 2°35.947 55.6 8.6 55 16.1
2008-01-30 12:48:31 51°9.411 2°36.183 63.8 10.8 63 16.2
2008-01-30 12:49:31 51°9.496 2°36.446 62.6 11.5 62 15.4
2008-01-30 12:50:30 51°9.583 2°36.702 62.4 10.4 66 15.6
2008-01-30 12:51:31 51°9.664 2°36.944 63 10.1 59 15.8
2008-01-30 12:52:30 51°9.749 2°37.17 57 10.1 61 15.8
2008-01-30 12:53:30 51°9.834 2°37.399 60.5 10.1 60 16.2
2008-01-30 12:54:30 51°9.918 2°37.634 60.9 10 60 15.9
2008-01-30 12:55:30 51°9.996 2°37.87 61.8 10.1 59 16.8
2008-01-30 12:56:30 51°10.078 2°38.105 61.4 10.1 60 16.3
2008-01-30 12:57:30 51°10.157 2°38.342 61.9 10.2 65 15.6
2008-01-30 12:58:30 51°10.236 2°38.575 60.8 10 61 15.9
2008-01-30 12:59:30 51°10.315 2°38.81 60.5 10 61 15.5
2008-01-30 13:00:30 51°10.396 2°39.043 61.3 10.3 64 15.4
2008-01-30 13:01:30 51°10.478 2°39.28 61.3 10.2 62 15.2
2008-01-30 13:02:30 51°10.558 2°39.517 61.4 10.2 61 14.7
2008-01-30 13:03:30 51°10.638 2°39.755 61 10.1 62 14.6
2008-01-30 13:04:30 51°10.72 2°39.993 62 10.3 61 13.6
2008-01-30 13:05:30 51°10.801 2°40.23 60.6 10.2 59 13.7
2008-01-30 13:06:30 51°10.884 2°40.468 61.5 10.4 63 13.3
2008-01-30 13:07:30 51°10.967 2°40.707 62.4 10.3 59 12.7
2008-01-30 13:08:30 51°11.05 2°40.947 60.6 10.4 63 12.5
2008-01-30 13:09:30 51°11.134 2°41.187 60.9 10.3 57 12.7
2008-01-30 13:10:30 51°11.217 2°41.425 60 10 57 11.6
2008-01-30 13:11:30 51°11.299 2°41.663 61.4 10.4 61 11.9
2008-01-30 13:12:30 51°11.383 2°41.9 61.8 10.3 59 11
2008-01-30 13:13:30 51°11.469 2°42.138 61.1 10.4 60 11
2008-01-30 13:14:30 51°11.553 2°42.378 62 10.4 65 10.1
2008-01-30 13:15:30 51°11.601 2°42.641 81.7 10.5 85 10.5
2008-01-30 13:16:30 51°11.618 2°42.921 83.9 10.6 81 10.4
2008-01-30 13:17:30 51°11.633 2°43.203 84.9 10.7 77 10.3
2008-01-30 13:18:30 51°11.649 2°43.486 84.6 10.7 79 10.3
2008-01-30 13:19:30 51°11.668 2°43.767 83.5 10.8 81 11
2008-01-30 13:20:30 51°11.688 2°44.049 84.2 10.8 83 11.1
2008-01-30 13:21:30 51°11.708 2°44.305 83 8.7 82 11.8
2008-01-30 13:22:30 51°11.72 2°44.523 84.1 8 85 12.4
2008-01-30 13:23:30 51°11.734 2°44.733 83.9 8 86 12.5
2008-01-30 13:24:30 51°11.752 2°44.943 81.1 7.9 80 12.7
2008-01-30 13:25:30 51°11.773 2°45.15 80.4 8 81 12.9
2008-01-30 13:26:30 51°11.796 2°45.357 79.2 7.9 81 12.7
2008-01-30 13:27:30 51°11.816 2°45.563 80.5 7.9 79 12.9
2008-01-30 13:28:30 51°11.838 2°45.769 80.1 7.8 79 13
2008-01-30 13:29:30 51°11.858 2°45.974 79.8 7.7 78 13.2
2008-01-30 13:30:30 51°11.878 2°46.179 78.7 7.9 83 13.3
2008-01-30 13:31:30 51°11.903 2°46.382 75.6 7.8 76 13
2008-01-30 13:32:30 51°11.939 2°46.579 73.6 7.8 72 12.9
2008-01-30 13:33:30 51°11.975 2°46.774 73.5 7.7 75 13
2008-01-30 13:34:30 51°12.03 2°46.953 62.9 7.5 60 12.7
2008-01-30 13:35:30 51°12.086 2°47.134 63.9 7.7 63 13
2008-01-30 13:36:30 51°12.142 2°47.317 65.2 7.6 65 12.4
2008-01-30 13:37:30 51°12.197 2°47.5 64.5 7.6 64 12.8
2008-01-30 13:38:30 51°12.251 2°47.685 64.7 7.8 66 12.8
2008-01-30 13:39:30 51°12.305 2°47.87 65.6 7.7 65 12.3
2008-01-30 13:40:30 51°12.359 2°48.056 65.1 7.5 65 12.2
2008-01-30 13:41:30 51°12.411 2°48.24 65.1 7.7 67 12.4
2008-01-30 13:42:30 51°12.464 2°48.423 65.4 7.6 66 12.8
2008-01-30 13:43:30 51°12.516 2°48.605 64.7 7.6 65 12.8
2008-01-30 13:44:30 51°12.57 2°48.789 65.1 7.7 65 12.4
2008-01-30 13:45:30 51°12.623 2°48.975 65.2 7.7 63 12.3
2008-01-30 13:46:30 51°12.677 2°49.159 64.4 7.7 63 12.1
2008-01-30 13:47:30 51°12.731 2°49.344 65.6 7.8 66 12.1
2008-01-30 13:48:30 51°12.787 2°49.527 62.3 7.7 60 11.8
2008-01-30 13:49:30 51°12.849 2°49.705 60.5 7.7 61 11.8
2008-01-30 13:50:30 51°12.913 2°49.882 60.3 7.6 60 11.5
2008-01-30 13:51:30 51°12.973 2°50.06 61.8 7.5 62 11.4
2008-01-30 13:52:30 51°13.035 2°50.237 61 7.6 56 11.6
2008-01-30 13:53:30 51°13.096 2°50.415 61.5 7.7 62 11.7
2008-01-30 13:54:30 51°13.159 2°50.596 60.9 7.7 60 11.3
2008-01-30 13:55:30 51°13.22 2°50.777 61.2 7.7 63 11.5
2008-01-30 13:56:30 51°13.283 2°50.957 59.8 7.8 63 11.6
2008-01-30 13:57:30 51°13.344 2°51.138 63.8 7.7 63 10.8
2008-01-30 13:58:30 51°13.405 2°51.319 61.4 7.9 60 11.6
2008-01-30 13:59:30 51°13.466 2°51.5 60.8 7.8 61 11.2
2008-01-30 14:00:30 51°13.529 2°51.683 60.9 7.9 62 11.1
2008-01-30 14:01:30 51°13.593 2°51.865 60.5 7.9 63 11.1
2008-01-30 14:02:30 51°13.655 2°52.049 60.9 7.9 58 10.8
2008-01-30 14:03:30 51°13.718 2°52.234 60.7 7.9 62 10.9
2008-01-30 14:04:30 51°13.78 2°52.42 61.6 7.9 62 10.9
2008-01-30 14:05:30 51°13.844 2°52.613 61.3 8.7 62 10.9
2008-01-30 14:06:30 51°13.925 2°52.844 60.9 10.8 60 10.6
2008-01-30 14:07:31 51°14.017 2°53.105 60.3 11.2 60 10.3
2008-01-30 14:08:30 51°14.107 2°53.362 61 11.2 58 10.3
2008-01-30 14:09:30 51°14.204 2°53.632 62.1 11.9 62 9.7
2008-01-30 14:10:30 51°14.292 2°53.914 65.5 11.9 61 9.9
2008-01-30 14:11:30 51°14.373 2°54.202 66.5 12 69 9.5
2008-01-30 14:12:30 51°14.422 2°54.511 85.4 12.3 85 10.5
2008-01-30 14:13:30 51°14.396 2°54.831 101.6 12.3 110 10.5
2008-01-30 14:14:31 51°14.328 2°55.14 119.8 12.3 125 10.9
2008-01-30 14:15:31 51°14.202 2°55.343 145.7 8.3 145 -999
2008-01-30 14:16:33 51°14.1 2°55.426 155.8 5.9 154 9.3
2008-01-30 14:17:31 51°14.01 2°55.497 155.9 6.5 154 9.8
2008-01-30 14:18:30 51°13.912 2°55.57 157.5 6.6 155 10.5
2008-01-30 14:19:30 51°13.818 2°55.639 156.7 5.4 154 11.1
2008-01-30 14:20:30 51°13.755 2°55.709 141.9 4.3 139 10.5
2008-01-30 14:21:30 51°13.708 2°55.787 129 3.9 127 12.9
2008-01-30 14:22:32 51°13.68 2°55.879 111.7 3.5 108 8.8
2008-01-30 14:23:34 51°13.67 2°55.938 113.8 1.3 105 -999
2008-01-30 14:24:34 51°13.665 2°55.951 126.2 0.4 141 -999
2008-01-30 14:25:34 51°13.664 2°55.953 135.6 0.3 251 -999